Time;durP1;ratioP1;P1;durP2;ratioP2;P2;SDS_P1;SDS_P2;PMS_P1;PMS_P2;Temp;Humidity;BMP_temperature;BMP_pressure;BME280_temperature;BME280_humidity;BME280_pressure;Samples;Min_cycle;Max_cycle;Signal;HPM_P1;HPM_P2
2022/01/15 00:00:30;;;;;;;44.67;23.02;;;;;;;-0.29;100.00;101811.47;5113320;28;20066;-73
2022/01/15 00:02:59;;;;;;;44.60;21.23;;;;;;;-0.30;100.00;101812.47;5113587;28;20044;-73
2022/01/15 00:05:27;;;;;;;38.90;21.95;;;;;;;-0.36;100.00;101805.13;5112765;28;20039;-73
2022/01/15 00:07:55;;;;;;;48.75;24.13;;;;;;;-0.42;100.00;101797.75;5113053;28;20043;-73
2022/01/15 00:10:27;;;;;;;36.58;20.65;;;;;;;-0.48;100.00;101790.41;5112270;28;20505;-73
2022/01/15 00:12:59;;;;;;;39.88;21.83;;;;;;;-0.51;100.00;101798.81;5113583;28;20479;-73
2022/01/15 00:15:34;;;;;;;40.22;21.58;;;;;;;-0.48;100.00;101799.31;5113127;28;20039;-74
2022/01/15 00:18:12;;;;;;;39.15;22.27;;;;;;;-0.49;100.00;101794.91;5095104;28;20054;-74
2022/01/15 00:20:40;;;;;;;38.83;21.38;;;;;;;-0.52;100.00;101789.06;5112129;28;20044;-73
2022/01/15 00:23:10;;;;;;;48.53;21.52;;;;;;;-0.32;100.00;101798.38;5112429;28;20044;-74
2022/01/15 00:25:37;;;;;;;36.28;20.70;;;;;;;-0.22;100.00;101786.53;5112912;28;20047;-74
2022/01/15 00:28:05;;;;;;;41.92;20.60;;;;;;;-0.05;100.00;101788.09;5112031;28;20640;-73
2022/01/15 00:30:35;;;;;;;37.83;19.75;;;;;;;-0.11;100.00;101788.00;5111244;28;20391;-74
2022/01/15 00:33:03;;;;;;;41.42;21.10;;;;;;;-0.24;100.00;101785.88;5113082;28;20066;-73
2022/01/15 00:35:31;;;;;;;38.20;19.55;;;;;;;-0.30;100.00;101777.50;5112863;28;20043;-73
2022/01/15 00:38:01;;;;;;;37.47;19.42;;;;;;;-0.26;100.00;101774.47;5111951;28;20063;-73
2022/01/15 00:40:29;;;;;;;33.72;19.48;;;;;;;-0.22;100.00;101773.09;5112050;28;20051;-73
2022/01/15 00:42:57;;;;;;;36.72;19.67;;;;;;;-0.30;100.00;101766.75;5111603;28;20051;-74
2022/01/15 00:45:29;;;;;;;40.88;20.67;;;;;;;-0.36;100.00;101766.59;5112859;28;20055;-73
2022/01/15 00:47:57;;;;;;;35.17;20.23;;;;;;;-0.43;100.00;101761.13;5111464;28;20051;-74
2022/01/15 00:50:25;;;;;;;38.60;20.05;;;;;;;-0.49;100.00;101762.66;5112736;28;20051;-74
2022/01/15 00:52:53;;;;;;;33.58;19.20;;;;;;;-0.47;100.00;101766.03;5111800;28;20073;-74
2022/01/15 00:55:21;;;;;;;38.28;20.65;;;;;;;-0.48;100.00;101752.75;5112484;28;20032;-74
2022/01/15 00:57:49;;;;;;;37.88;20.60;;;;;;;-0.50;100.00;101754.78;5111688;28;20062;-74
2022/01/15 01:00:20;;;;;;;38.63;20.67;;;;;;;-0.50;100.00;101746.72;5112519;28;20044;-73
2022/01/15 01:02:49;;;;;;;36.35;19.98;;;;;;;-0.48;100.00;101747.38;5112121;28;20040;-73
2022/01/15 01:05:20;;;;;;;35.92;20.70;;;;;;;-0.24;100.00;101748.22;5111973;28;20054;-74
2022/01/15 01:07:49;;;;;;;43.58;20.85;;;;;;;-0.29;100.00;101746.91;5111972;28;20044;-73
2022/01/15 01:24:19;;;;;;;39.38;21.50;;;;;;;-0.43;100.00;101724.28;5110878;28;20047;-73
2022/01/15 01:26:54;;;;;;;39.88;21.25;;;;;;;-0.42;100.00;101727.81;5111792;28;20047;-73
2022/01/15 01:32:25;;;;;;;41.97;21.83;;;;;;;-0.43;100.00;101715.41;5112229;28;20039;-73
2022/01/15 01:34:53;;;;;;;38.42;22.40;;;;;;;-0.51;100.00;101726.19;5111762;28;20040;-73
2022/01/15 01:37:33;;;;;;;44.55;21.70;;;;;;;-0.63;100.00;101721.22;5112146;28;20047;-74
2022/01/15 01:43:44;;;;;;;42.92;20.65;;;;;;;-0.66;100.00;101713.50;5116267;28;20038;-73
2022/01/15 01:45:45;;;;;;;40.20;21.25;;;;;;;-0.59;100.00;101708.28;5110300;28;20056;-73
2022/01/15 01:48:13;;;;;;;44.83;21.85;;;;;;;-0.64;100.00;101695.34;5097854;28;20062;-73
2022/01/15 01:50:41;;;;;;;41.47;21.20;;;;;;;-0.57;100.00;101700.84;5116116;28;20525;-74
2022/01/15 01:53:10;;;;;;;38.67;21.05;;;;;;;-0.46;100.00;101707.66;5115147;28;20043;-73
2022/01/15 01:55:38;;;;;;;39.15;19.52;;;;;;;-0.24;100.00;101705.19;5115604;28;20036;-73
2022/01/15 01:58:06;;;;;;;38.22;21.48;;;;;;;-0.33;100.00;101696.31;5115959;28;20047;-73
2022/01/15 02:00:33;;;;;;;37.95;21.00;;;;;;;-0.26;100.00;101702.66;5114690;28;20619;-73
2022/01/15 02:03:02;;;;;;;45.17;22.15;;;;;;;-0.31;100.00;101696.97;5115440;28;20067;-73
2022/01/15 02:05:30;;;;;;;47.60;21.85;;;;;;;-0.42;100.00;101692.88;5115286;28;20048;-73
2022/01/15 02:07:58;;;;;;;40.22;20.92;;;;;;;-0.57;100.00;101669.44;5115382;28;20062;-73
2022/01/15 02:10:26;;;;;;;38.33;20.92;;;;;;;-0.66;100.00;101677.72;5115473;28;20046;-73
2022/01/15 02:12:55;;;;;;;37.63;21.02;;;;;;;-0.66;100.00;101670.50;5114798;28;20042;-73
2022/01/15 02:15:24;;;;;;;49.03;22.40;;;;;;;-0.72;100.00;101671.22;5115542;28;20509;-73
2022/01/15 02:17:53;;;;;;;39.05;21.17;;;;;;;-0.79;100.00;101664.88;5115480;28;20036;-74
2022/01/15 02:25:55;;;;;;;37.80;20.60;;;;;;;-0.67;100.00;101655.38;5114632;28;20043;-73
2022/01/15 02:28:27;;;;;;;38.57;20.60;;;;;;;-0.62;100.00;101650.31;5096510;28;20043;-73
2022/01/15 02:30:58;;;;;;;36.38;20.58;;;;;;;-0.61;100.00;101643.91;5114494;28;20043;-73
2022/01/15 02:33:27;;;;;;;37.38;22.25;;;;;;;-0.57;100.00;101642.56;5114664;28;20043;-73
2022/01/15 02:35:56;;;;;;;34.67;21.25;;;;;;;-0.49;100.00;101638.13;5114285;28;20055;-73
2022/01/15 02:38:24;;;;;;;32.85;19.08;;;;;;;-0.51;100.00;101638.28;5114570;28;20052;-73
2022/01/15 02:40:53;;;;;;;40.38;20.75;;;;;;;-0.52;100.00;101630.41;5114640;28;20058;-73
2022/01/15 02:43:29;;;;;;;37.05;21.10;;;;;;;-0.61;100.00;101627.78;5114482;28;20051;-73
2022/01/15 02:46:07;;;;;;;37.80;20.70;;;;;;;-0.59;100.00;101627.63;5115058;28;20043;-73
2022/01/15 02:48:36;;;;;;;37.50;20.38;;;;;;;-0.60;100.00;101621.38;5114329;28;20063;-74
2022/01/15 02:51:04;;;;;;;33.03;19.40;;;;;;;-0.64;100.00;101614.69;5114743;28;20039;-73
2022/01/15 02:53:32;;;;;;;33.17;19.02;;;;;;;-0.69;100.00;101617.06;5112025;28;20062;-73
2022/01/15 02:56:00;;;;;;;41.55;18.90;;;;;;;-0.73;100.00;101621.16;5114664;28;20390;-73
2022/01/15 02:58:28;;;;;;;34.72;19.10;;;;;;;-0.79;100.00;101620.00;5113968;28;20048;-73
2022/01/15 03:00:56;;;;;;;37.60;19.77;;;;;;;-0.81;100.00;101622.03;5114540;28;20044;-73
2022/01/15 03:03:24;;;;;;;43.50;20.60;;;;;;;-0.85;100.00;101618.03;5113846;28;20051;-73
2022/01/15 03:05:52;;;;;;;32.70;18.73;;;;;;;-0.83;100.00;101621.38;5114920;28;20050;-73
2022/01/15 03:08:20;;;;;;;38.40;18.05;;;;;;;-0.84;100.00;101603.56;5113646;28;20405;-73
2022/01/15 03:10:48;;;;;;;32.40;18.70;;;;;;;-0.74;100.00;101611.41;5113695;28;20046;-74
2022/01/15 03:13:16;;;;;;;37.10;18.92;;;;;;;-0.76;100.00;101618.81;5113890;28;20043;-73
2022/01/15 03:15:44;;;;;;;33.90;19.73;;;;;;;-0.82;100.00;101615.00;5113603;28;20039;-73
2022/01/15 03:18:12;;;;;;;34.15;19.33;;;;;;;-0.75;100.00;101617.78;5114414;28;20039;-73
2022/01/15 03:20:40;;;;;;;39.97;19.30;;;;;;;-0.69;100.00;101620.59;5113161;28;20054;-73
2022/01/15 03:23:08;;;;;;;35.65;19.52;;;;;;;-0.69;100.00;101625.97;5113511;28;20114;-73
2022/01/15 03:25:36;;;;;;;33.97;17.30;;;;;;;-0.58;100.00;101622.03;5113451;28;20063;-73
2022/01/15 03:28:04;;;;;;;35.63;18.33;;;;;;;-0.64;100.00;101614.69;5113257;28;20052;-73
2022/01/15 03:30:32;;;;;;;31.83;17.23;;;;;;;-0.68;100.00;101619.59;5113354;28;20069;-74
2022/01/15 03:33:00;;;;;;;35.30;18.27;;;;;;;-0.53;100.00;101615.28;5112806;28;20043;-73
2022/01/15 03:35:29;;;;;;;31.40;15.82;;;;;;;-0.61;100.00;101617.03;5094877;28;20044;-73
2022/01/15 03:37:57;;;;;;;31.02;18.35;;;;;;;-0.65;100.00;101618.41;5113281;28;20043;-73
2022/01/15 03:40:25;;;;;;;29.63;17.23;;;;;;;-0.70;100.00;101623.47;5112826;28;20052;-73
2022/01/15 03:42:53;;;;;;;29.73;16.65;;;;;;;-0.71;100.00;101616.44;5095666;28;20040;-73
2022/01/15 03:45:21;;;;;;;31.88;16.83;;;;;;;-0.75;100.00;101621.31;5112483;28;20406;-73
2022/01/15 03:47:49;;;;;;;35.05;16.45;;;;;;;-0.70;100.00;101620.78;5112991;28;20051;-73
2022/01/15 03:50:18;;;;;;;33.08;16.85;;;;;;;-0.67;100.00;101623.13;5113023;28;20047;-73
2022/01/15 03:52:46;;;;;;;31.23;17.15;;;;;;;-0.56;100.00;101617.34;5112874;28;20051;-73
2022/01/15 03:55:15;;;;;;;33.90;16.95;;;;;;;-0.65;100.00;101607.63;5113908;28;20043;-73
2022/01/15 03:57:43;;;;;;;26.58;15.48;;;;;;;-0.61;100.00;101608.09;5112738;28;20060;-73
2022/01/15 04:00:14;;;;;;;28.02;15.43;;;;;;;-0.60;100.00;101615.16;5112499;28;20055;-73
2022/01/15 04:02:42;;;;;;;29.10;16.08;;;;;;;-0.57;100.00;101618.34;5113546;28;20142;-73
2022/01/15 04:05:11;;;;;;;25.90;15.90;;;;;;;-0.60;100.00;101605.25;5112469;28;20062;-73
2022/01/15 04:07:39;;;;;;;28.60;14.57;;;;;;;-0.63;100.00;101613.66;5113459;28;20051;-73
2022/01/15 04:10:09;;;;;;;26.40;14.00;;;;;;;-0.64;100.00;101620.06;5112540;28;20066;-74
2022/01/15 04:12:37;;;;;;;30.27;14.68;;;;;;;-0.31;100.00;101609.06;5112601;28;20044;-73
2022/01/15 04:15:07;;;;;;;26.40;15.15;;;;;;;-0.10;100.00;101618.25;5112761;28;20402;-73
2022/01/15 04:17:35;;;;;;;27.80;14.43;;;;;;;-0.09;100.00;101619.97;5112528;28;20051;-73
2022/01/15 04:20:04;;;;;;;26.80;14.35;;;;;;;0.12;100.00;101613.00;5094792;28;20059;-73
2022/01/15 04:22:32;;;;;;;26.52;15.15;;;;;;;0.28;100.00;101612.00;5113138;28;20393;-74
2022/01/15 04:25:00;;;;;;;28.92;15.48;;;;;;;0.34;100.00;101613.94;5111954;28;20054;-73
2022/01/15 04:27:28;;;;;;;32.58;16.20;;;;;;;0.23;100.00;101625.16;5111793;28;20055;-73
2022/01/15 04:30:01;;;;;;;32.97;16.85;;;;;;;0.17;100.00;101616.00;5112917;28;20405;-73
2022/01/15 04:32:30;;;;;;;31.63;15.82;;;;;;;0.10;100.00;101620.44;5112214;28;20048;-73
2022/01/15 04:34:58;;;;;;;30.63;15.27;;;;;;;-0.07;100.00;101631.38;5112957;28;20060;-74
2022/01/15 04:37:36;;;;;;;31.38;15.38;;;;;;;-0.04;100.00;101631.00;5112984;28;20039;-73
2022/01/15 04:40:06;;;;;;;27.83;14.75;;;;;;;-0.07;100.00;101631.38;5112012;28;20141;-73
2022/01/15 04:42:34;;;;;;;29.73;14.52;;;;;;;-0.06;100.00;101633.03;5112003;28;20404;-74
2022/01/15 04:45:06;;;;;;;22.27;14.13;;;;;;;-0.16;100.00;101632.44;5111838;28;20051;-73
2022/01/15 04:47:35;;;;;;;25.38;13.70;;;;;;;-0.23;100.00;101635.06;5112276;28;20048;-73
2022/01/15 04:50:06;;;;;;;25.85;14.38;;;;;;;-0.12;100.00;101639.16;5112340;28;20054;-73
2022/01/15 04:52:36;;;;;;;25.10;14.00;;;;;;;-0.12;100.00;101627.53;5112289;28;20420;-73
2022/01/15 04:55:06;;;;;;;27.60;14.30;;;;;;;-0.22;100.00;101628.66;5094820;28;20051;-73
2022/01/15 04:57:34;;;;;;;27.27;14.43;;;;;;;-0.19;100.00;101622.06;5111461;28;20043;-73
2022/01/15 05:00:08;;;;;;;27.75;13.60;;;;;;;-0.14;100.00;101625.06;5111769;28;20079;-74
2022/01/15 05:02:38;;;;;;;28.95;15.13;;;;;;;-0.20;100.00;101625.78;5112217;28;20047;-73
2022/01/15 05:05:07;;;;;;;28.70;14.77;;;;;;;-0.25;100.00;101622.78;5111718;28;20434;-73
2022/01/15 05:07:35;;;;;;;25.42;14.30;;;;;;;-0.22;100.00;101627.81;5111667;28;20044;-73
2022/01/15 05:10:05;;;;;;;26.58;14.30;;;;;;;-0.08;100.00;101636.94;5111803;28;20048;-73
2022/01/15 05:12:41;;;;;;;28.42;14.82;;;;;;;-0.20;100.00;101644.63;5111753;28;20375;-74
2022/01/15 05:15:10;;;;;;;29.30;15.57;;;;;;;-0.15;100.00;101639.50;5111457;28;20062;-74
2022/01/15 05:17:38;;;;;;;28.52;15.40;;;;;;;-0.20;100.00;101644.63;5112051;28;20118;-74
2022/01/15 05:20:08;;;;;;;28.92;13.77;;;;;;;-0.37;100.00;101647.44;5112224;28;20050;-73
2022/01/15 05:22:37;;;;;;;29.92;15.73;;;;;;;-0.44;100.00;101641.13;5093882;28;20036;-74
2022/01/15 05:25:09;;;;;;;27.90;13.75;;;;;;;-0.55;100.00;101645.88;5112285;28;20054;-73
2022/01/15 05:27:41;;;;;;;22.75;13.48;;;;;;;-0.68;100.00;101641.09;5093811;28;20051;-74
2022/01/15 05:30:11;;;;;;;33.25;15.50;;;;;;;-0.74;100.00;101643.69;5112278;28;20406;-74
2022/01/15 05:32:39;;;;;;;29.52;13.30;;;;;;;-0.80;100.00;101641.69;5111736;28;20394;-73
2022/01/15 05:35:08;;;;;;;27.23;13.88;;;;;;;-0.84;100.00;101641.19;5127211;28;20052;-73
2022/01/15 05:37:36;;;;;;;27.58;14.07;;;;;;;-0.87;100.00;101644.25;5112514;28;20040;-73
2022/01/15 05:40:05;;;;;;;25.17;14.30;;;;;;;-0.75;100.00;101650.91;5111997;28;20044;-74
2022/01/15 05:42:33;;;;;;;27.10;14.88;;;;;;;-0.68;100.00;101651.03;5111697;28;20043;-74
2022/01/15 05:45:01;;;;;;;28.05;13.95;;;;;;;-0.78;100.00;101651.22;5111188;28;20043;-73
2022/01/15 05:47:29;;;;;;;26.63;13.88;;;;;;;-0.86;100.00;101646.78;5110982;28;20394;-73
2022/01/15 05:49:57;;;;;;;23.65;13.32;;;;;;;-0.94;100.00;101652.16;5111780;28;20520;-73
2022/01/15 05:52:25;;;;;;;26.67;14.20;;;;;;;-0.95;100.00;101656.72;5111480;28;20050;-74
2022/01/15 05:54:53;;;;;;;24.17;13.70;;;;;;;-0.94;100.00;101646.78;5111079;28;20043;-74
2022/01/15 05:57:21;;;;;;;27.52;14.38;;;;;;;-0.85;100.00;101648.44;5111255;28;20498;-74
2022/01/15 05:59:51;;;;;;;29.27;14.23;;;;;;;-0.87;100.00;101649.63;5111618;28;20075;-74
2022/01/15 06:02:20;;;;;;;22.83;12.80;;;;;;;-0.85;100.00;101655.66;5123405;28;20047;-74
2022/01/15 06:04:49;;;;;;;20.38;13.43;;;;;;;-0.77;100.00;101657.47;5085209;28;20032;-74
2022/01/15 06:07:17;;;;;;;26.02;14.68;;;;;;;-0.85;100.00;101656.50;5092596;28;20364;-74
2022/01/15 06:09:45;;;;;;;23.83;12.73;;;;;;;-0.90;100.00;101661.56;5095397;28;20047;-74
2022/01/15 06:12:13;;;;;;;27.35;13.85;;;;;;;-0.90;100.00;101664.25;5090014;28;20048;-74
2022/01/15 06:14:42;;;;;;;24.83;13.32;;;;;;;-0.93;100.00;101674.53;5092944;28;20051;-74
2022/01/15 06:17:10;;;;;;;25.60;13.60;;;;;;;-1.00;100.00;101679.75;5094308;28;20048;-74
2022/01/15 06:19:38;;;;;;;27.25;13.65;;;;;;;-1.08;100.00;101667.19;5099473;28;20043;-74
2022/01/15 06:22:06;;;;;;;25.30;13.05;;;;;;;-1.14;100.00;101684.00;5061991;28;20067;-74
2022/01/15 06:24:34;;;;;;;23.58;12.95;;;;;;;-1.19;100.00;101684.53;5099736;28;20048;-74
2022/01/15 06:27:03;;;;;;;24.85;13.30;;;;;;;-1.25;100.00;101682.56;5100873;28;20394;-74
2022/01/15 06:29:31;;;;;;;24.33;13.65;;;;;;;-1.23;100.00;101683.19;5086640;28;20044;-73
2022/01/15 06:31:59;;;;;;;23.67;13.38;;;;;;;-1.25;100.00;101690.59;5094241;28;20055;-74
2022/01/15 06:34:27;;;;;;;23.63;12.90;;;;;;;-1.29;100.00;101691.94;5104809;28;20035;-75
2022/01/15 06:36:55;;;;;;;22.60;12.85;;;;;;;-1.31;100.00;101693.97;5097329;28;20048;-74
2022/01/15 06:39:25;;;;;;;25.02;13.60;;;;;;;-1.08;100.00;101699.44;5090535;28;20032;-74
2022/01/15 06:41:53;;;;;;;25.48;13.32;;;;;;;-1.11;100.00;101700.59;5094464;28;20044;-74
2022/01/15 06:44:20;;;;;;;26.33;13.60;;;;;;;-1.13;100.00;101702.66;5107559;28;20502;-74
2022/01/15 06:46:48;;;;;;;21.40;12.98;;;;;;;-1.14;100.00;101703.66;5110568;28;20047;-74
2022/01/15 06:49:18;;;;;;;22.10;12.77;;;;;;;-1.19;100.00;101714.09;5112947;27;20048;-75
2022/01/15 06:51:47;;;;;;;27.27;14.00;;;;;;;-1.21;100.00;101710.75;5102818;28;20055;-75
2022/01/15 06:54:15;;;;;;;29.92;13.20;;;;;;;-1.24;100.00;101717.31;5094118;28;20055;-75
2022/01/15 06:56:43;;;;;;;25.75;14.75;;;;;;;-1.29;100.00;101708.06;5112996;28;20051;-74
2022/01/15 06:59:11;;;;;;;25.33;14.00;;;;;;;-1.27;100.00;101716.81;5114367;28;20490;-74
2022/01/15 07:01:39;;;;;;;28.08;14.38;;;;;;;-1.24;100.00;101716.44;5096035;28;20052;-74
2022/01/15 07:04:08;;;;;;;29.40;12.73;;;;;;;-1.16;100.00;101716.44;5114015;28;20043;-74
2022/01/15 07:06:36;;;;;;;24.77;13.55;;;;;;;-1.15;100.00;101715.44;5096204;28;20397;-74
2022/01/15 07:09:04;;;;;;;22.52;13.30;;;;;;;-1.12;100.00;101715.06;5113122;28;20536;-74
2022/01/15 07:11:31;;;;;;;25.00;13.88;;;;;;;-1.05;100.00;101720.59;5113447;28;20047;-75
2022/01/15 07:13:59;;;;;;;22.92;12.13;;;;;;;-0.93;100.00;101720.22;5095072;28;20039;-74
2022/01/15 07:16:27;;;;;;;24.83;12.50;;;;;;;-0.91;100.00;101727.09;5113571;28;20401;-75
2022/01/15 07:18:55;;;;;;;22.08;12.55;;;;;;;-0.82;100.00;101731.41;5113618;28;20047;-75
2022/01/15 07:21:23;;;;;;;24.52;13.38;;;;;;;-0.71;100.00;101729.34;5113029;28;20402;-74
2022/01/15 07:23:51;;;;;;;23.23;13.63;;;;;;;-0.60;100.00;101728.94;5110733;27;20310;-74
2022/01/15 07:26:19;;;;;;;24.55;13.57;;;;;;;-0.46;100.00;101729.19;5103263;27;20052;-74
2022/01/15 07:28:47;;;;;;;25.35;13.60;;;;;;;-0.36;100.00;101729.81;5114715;27;20418;-74
2022/01/15 07:31:15;;;;;;;24.63;13.80;;;;;;;-0.24;100.00;101742.84;5110855;27;20039;-74
2022/01/15 07:33:43;;;;;;;21.95;12.63;;;;;;;-0.09;100.00;101745.59;5112897;27;20516;-75
2022/01/15 07:36:13;;;;;;;26.33;12.43;;;;;;;0.38;100.00;101740.97;5100203;28;20536;-85
2022/01/15 07:38:41;;;;;;;23.50;13.27;;;;;;;0.69;96.72;101744.56;5071662;28;20052;-86
2022/01/15 07:41:13;;;;;;;20.60;12.38;;;;;;;0.86;95.01;101742.50;5078859;28;20058;-85
2022/01/15 07:43:42;;;;;;;26.27;13.35;;;;;;;0.83;94.33;101745.59;5109538;27;20079;-84
2022/01/15 07:46:11;;;;;;;23.20;13.10;;;;;;;0.97;93.65;101755.53;5104489;27;20048;-84
2022/01/15 07:48:39;;;;;;;45.38;25.05;;;;;;;1.17;93.10;101749.56;5105431;28;20040;-84
2022/01/15 07:51:07;;;;;;;44.35;25.55;;;;;;;1.25;92.45;101759.41;5090118;28;20494;-84
2022/01/15 07:53:35;;;;;;;42.67;25.63;;;;;;;1.48;90.91;101749.31;5111673;27;20527;-84
2022/01/15 07:56:03;;;;;;;39.58;23.40;;;;;;;1.63;89.13;101747.59;5116779;27;20040;-84
2022/01/15 07:58:31;;;;;;;39.15;23.10;;;;;;;1.76;88.32;101747.72;5111759;28;20044;-79
2022/01/15 08:00:59;;;;;;;35.60;21.70;;;;;;;1.85;87.29;101762.78;5093371;28;20055;-77
2022/01/15 08:03:30;;;;;;;37.38;21.92;;;;;;;1.92;86.83;101753.91;5112546;28;20048;-78
2022/01/15 08:05:58;;;;;;;36.33;17.98;;;;;;;1.95;86.62;101756.25;5091981;28;20440;-79
2022/01/15 08:08:26;;;;;;;26.90;16.75;;;;;;;1.89;85.75;101757.81;5112526;28;20047;-73
2022/01/15 08:10:54;;;;;;;26.17;15.02;;;;;;;1.88;87.30;101756.16;5098020;28;20054;-73
2022/01/15 08:13:22;;;;;;;23.65;12.48;;;;;;;1.94;85.81;101763.50;5082449;28;20071;-72
2022/01/15 08:15:51;;;;;;;22.88;12.70;;;;;;;2.04;85.86;101765.88;5104678;28;20055;-72
2022/01/15 08:18:21;;;;;;;28.10;14.73;;;;;;;2.41;85.17;101763.88;5089817;28;20368;-72
2022/01/15 08:20:50;;;;;;;24.98;13.20;;;;;;;2.62;84.17;101767.59;5096539;28;20048;-72
2022/01/15 08:23:18;;;;;;;23.88;13.88;;;;;;;3.06;82.80;101779.09;5100973;28;20040;-72
2022/01/15 08:25:46;;;;;;;34.08;20.10;;;;;;;2.82;82.34;101767.72;5100509;28;20048;-72
2022/01/15 08:28:15;;;;;;;35.35;19.40;;;;;;;3.12;82.28;101763.09;5092261;28;20064;-72
2022/01/15 08:30:43;;;;;;;32.95;17.83;;;;;;;3.40;81.94;101762.16;5091687;28;20043;-73
2022/01/15 08:33:11;;;;;;;37.17;18.55;;;;;;;3.39;81.35;101772.16;5111844;28;20054;-72
2022/01/15 08:35:40;;;;;;;41.20;17.50;;;;;;;3.53;81.32;101767.66;5110993;28;20051;-73
2022/01/15 08:38:08;;;;;;;33.50;17.67;;;;;;;3.57;81.02;101777.00;5119144;27;20043;-73
2022/01/15 08:40:36;;;;;;;35.38;18.77;;;;;;;3.81;80.52;101784.78;5114002;27;20059;-74
2022/01/15 08:43:07;;;;;;;43.22;18.83;;;;;;;4.01;80.32;101785.66;5106944;28;20048;-73
2022/01/15 08:45:37;;;;;;;34.97;18.40;;;;;;;3.73;79.05;101781.22;5105955;28;20493;-73
2022/01/15 08:48:06;;;;;;;32.60;16.38;;;;;;;3.96;79.64;101784.63;5104399;28;20058;-73
2022/01/15 08:50:35;;;;;;;30.80;17.15;;;;;;;4.49;79.03;101781.09;5108624;28;20067;-74
2022/01/15 08:53:06;;;;;;;30.25;16.92;;;;;;;4.84;76.08;101788.16;5107586;28;20044;-73
2022/01/15 08:55:35;;;;;;;30.48;15.85;;;;;;;4.89;75.38;101785.63;5109313;28;20364;-73
2022/01/15 08:58:03;;;;;;;32.92;17.08;;;;;;;5.16;75.21;101784.72;5108035;28;20047;-73
2022/01/15 09:00:31;;;;;;;29.48;16.17;;;;;;;5.37;73.83;101781.72;5109163;28;20070;-73
2022/01/15 09:02:59;;;;;;;27.00;16.15;;;;;;;5.62;71.96;101783.72;5092394;28;20048;-73
2022/01/15 09:05:29;;;;;;;30.30;15.90;;;;;;;5.59;69.25;101777.88;5107341;28;20036;-74
2022/01/15 09:07:58;;;;;;;30.88;16.35;;;;;;;5.96;70.37;101785.41;5103870;28;20043;-73
2022/01/15 09:10:27;;;;;;;26.05;16.42;;;;;;;6.31;68.86;101779.53;5098314;28;20039;-76
2022/01/15 09:12:55;;;;;;;25.75;15.07;;;;;;;6.38;68.54;101780.31;5091814;28;20389;-77
2022/01/15 09:15:30;;;;;;;34.08;16.10;;;;;;;6.15;67.68;101779.03;5093712;28;20040;-80
2022/01/15 09:17:59;;;;;;;28.60;16.17;;;;;;;6.48;67.83;101789.84;5111786;28;20055;-78
2022/01/15 09:20:28;;;;;;;24.13;15.63;;;;;;;6.57;66.85;101789.38;5096591;28;20048;-77
2022/01/15 09:22:59;;;;;;;26.60;16.50;;;;;;;6.61;67.94;101799.78;5110054;28;20063;-77
2022/01/15 09:25:32;;;;;;;30.98;17.13;;;;;;;6.69;68.04;101786.72;5108513;28;20048;-77
2022/01/15 09:30:46;;;;;;;25.55;16.48;;;;;;;6.84;67.75;101793.69;5100160;28;20043;-77
2022/01/15 09:33:16;;;;;;;29.08;16.92;;;;;;;6.69;67.93;101805.78;5110946;28;20387;-64
2022/01/15 09:35:44;;;;;;;30.85;16.95;;;;;;;6.84;67.26;101804.59;5128112;28;20030;-77
2022/01/15 09:38:15;;;;;;;26.90;16.85;;;;;;;7.08;66.50;101800.16;5129389;28;20047;-78
2022/01/15 09:40:44;;;;;;;29.45;17.90;;;;;;;6.53;68.45;101790.00;5111254;28;20129;-78
2022/01/15 09:43:15;;;;;;;26.20;17.38;;;;;;;6.69;68.13;101808.50;5109891;28;20055;-78
2022/01/15 09:45:45;;;;;;;30.75;18.80;;;;;;;6.54;64.16;101799.84;5110378;28;20048;-78
2022/01/15 09:48:16;;;;;;;30.13;18.40;;;;;;;6.59;65.89;101803.56;5110912;28;20039;-76
2022/01/15 09:50:46;;;;;;;32.38;18.00;;;;;;;6.81;65.71;101794.16;5110275;28;20044;-75
2022/01/15 09:53:16;;;;;;;30.95;18.98;;;;;;;6.93;65.38;101796.97;5107771;28;20040;-76
2022/01/15 09:55:46;;;;;;;32.20;19.00;;;;;;;7.20;65.32;101802.13;5111232;28;20047;-76
2022/01/15 09:58:17;;;;;;;38.30;20.95;;;;;;;6.94;64.17;101799.47;5111493;28;20855;-76
2022/01/15 10:00:46;;;;;;;31.92;17.83;;;;;;;7.04;63.88;101798.94;5108110;28;20063;-75
2022/01/15 10:03:15;;;;;;;35.63;20.00;;;;;;;6.99;64.70;101799.63;5112177;28;20058;-75
2022/01/15 10:05:44;;;;;;;34.88;19.73;;;;;;;7.30;63.27;101797.00;5111953;28;20058;-73
2022/01/15 10:08:13;;;;;;;30.88;18.98;;;;;;;7.32;63.30;101800.31;5112814;28;20043;-74
2022/01/15 10:10:50;;;;;;;35.42;20.52;;;;;;;7.45;63.29;101806.66;5075443;28;20044;-80
2022/01/15 10:13:24;;;;;;;36.13;20.80;;;;;;;7.34;63.79;101802.81;5109810;28;20051;-76
2022/01/15 10:15:59;;;;;;;37.15;20.92;;;;;;;7.44;64.21;101803.13;5112032;28;20032;-77
2022/01/15 10:18:32;;;;;;;;;;;;;;;7.56;63.29;101807.75;5112264;28;20501;-75
2022/01/15 11:00:41;;;;;;;34.03;20.85;;;;;;;8.09;58.55;101791.72;4900024;23;20060;-71
2022/01/15 11:03:12;;;;;;;35.08;21.92;;;;;;;8.39;57.20;101790.84;4860302;29;20104;-71
2022/01/15 11:05:48;;;;;;;35.15;21.75;;;;;;;8.34;56.58;101784.22;4860300;29;20060;-71
2022/01/15 11:08:20;;;;;;;29.45;18.65;;;;;;;8.58;56.35;101786.16;4890906;29;20404;-71
2022/01/15 11:10:55;;;;;;;31.88;21.58;;;;;;;8.01;58.09;101793.72;4878447;29;20056;-71
2022/01/15 11:13:28;;;;;;;33.88;19.38;;;;;;;8.05;57.06;101775.84;4877320;29;20048;-71
2022/01/15 11:16:02;;;;;;;31.27;20.38;;;;;;;8.15;57.22;101779.88;4873804;29;20053;-72
2022/01/15 11:18:34;;;;;;;31.33;19.83;;;;;;;8.37;57.46;101765.72;4878862;29;20050;-71
2022/01/15 11:21:06;;;;;;;33.33;21.45;;;;;;;7.72;59.20;101771.72;4878337;29;20052;-71
2022/01/15 11:23:38;;;;;;;35.08;21.50;;;;;;;7.99;58.90;101776.78;4878823;29;20060;-71
2022/01/15 11:26:10;;;;;;;39.80;22.80;;;;;;;8.78;57.81;101771.31;4879548;29;20057;-72
2022/01/15 11:28:42;;;;;;;38.67;22.80;;;;;;;8.71;56.37;101772.25;4879513;29;20053;-72
2022/01/15 11:31:14;;;;;;;35.72;21.63;;;;;;;8.70;56.59;101756.16;4879713;29;20049;-71
2022/01/15 11:33:51;;;;;;;36.75;22.20;;;;;;;8.88;55.86;101766.09;4879077;29;20436;-72
2022/01/15 11:36:31;;;;;;;36.63;22.05;;;;;;;9.00;54.45;101775.09;4880031;29;20182;-72
2022/01/15 11:39:03;;;;;;;33.63;21.60;;;;;;;9.27;55.08;101768.25;4879216;29;20060;-72
2022/01/15 11:41:31;;;;;;;34.60;21.70;;;;;;;9.11;54.87;101767.97;4879042;29;20049;-71
2022/01/15 11:43:59;;;;;;;34.95;20.92;;;;;;;8.99;53.54;101761.66;4878550;29;20064;-72
2022/01/15 11:46:33;;;;;;;36.45;22.88;;;;;;;9.23;54.02;101767.91;4893734;29;20045;-71
2022/01/15 11:49:26;;;;;;;38.08;22.67;;;;;;;9.38;52.36;101752.91;4879576;29;20048;-71
2022/01/15 11:52:13;;;;;;;38.65;22.58;;;;;;;9.35;51.65;101737.84;4878846;29;20049;-71
2022/01/15 11:55:03;;;;;;;39.70;22.90;;;;;;;9.11;52.12;101746.13;4879183;29;20057;-71
2022/01/15 11:57:36;;;;;;;36.13;21.60;;;;;;;9.52;52.46;101726.13;4879613;29;20056;-72
2022/01/15 12:00:06;;;;;;;40.00;22.42;;;;;;;9.02;54.05;101733.91;4878723;29;20515;-71
2022/01/15 12:02:36;;;;;;;35.10;21.75;;;;;;;9.18;52.77;101729.56;4879173;29;20492;-71
2022/01/15 12:05:16;;;;;;;37.65;22.05;;;;;;;9.85;50.25;101724.53;4879426;29;20057;-71
2022/01/15 12:07:45;;;;;;;37.90;23.92;;;;;;;10.02;49.09;101718.25;4879137;29;20061;-71
2022/01/15 12:10:15;;;;;;;32.22;21.08;;;;;;;9.52;50.78;101710.56;4878436;29;20061;-72
2022/01/15 12:12:52;;;;;;;35.90;20.83;;;;;;;9.72;50.56;101703.81;4874578;29;20048;-71
2022/01/15 12:15:28;;;;;;;32.65;21.35;;;;;;;10.10;48.78;101701.44;4873761;29;20048;-73
2022/01/15 12:18:19;;;;;;;37.65;21.80;;;;;;;9.87;51.47;101700.50;4878468;29;20053;-72
2022/01/15 12:20:54;;;;;;;33.67;20.60;;;;;;;10.03;51.15;101681.63;4879018;29;20063;-72
2022/01/15 12:23:22;;;;;;;34.05;20.55;;;;;;;10.02;49.52;101697.19;4877288;29;20064;-72
2022/01/15 12:25:54;;;;;;;33.03;21.25;;;;;;;10.13;49.38;101695.47;4876699;29;20480;-72